Time;durP1;ratioP1;P1;durP2;ratioP2;P2;SDS_P1;SDS_P2;PMS_P1;PMS_P2;Temp;Humidity;BMP_temperature;BMP_pressure;BME280_temperature;BME280_humidity;BME280_pressure;Samples;Min_cycle;Max_cycle;Signal;HPM_P1;HPM_P2
2022/11/15 00:02:00;;;;;;;;;;;;;;;21.29;56.49;100220.59;7255682;19;153796;-58
2022/11/15 00:04:27;;;;;;;;;;;;;;;21.30;56.10;100219.47;7253909;19;153297;-58
2022/11/15 00:06:54;;;;;;;;;;;;;;;21.29;56.38;100217.78;7257603;19;154234;-58
2022/11/15 00:09:21;;;;;;;;;;;;;;;21.28;56.39;100216.97;7260825;19;152656;-58
2022/11/15 00:11:47;;;;;;;;;;;;;;;21.28;56.12;100213.31;7253742;19;153527;-58
2022/11/15 00:14:14;;;;;;;;;;;;;;;21.28;56.34;100205.72;7257278;19;154633;-58
2022/11/15 00:16:41;;;;;;;;;;;;;;;21.28;56.19;100202.91;7259117;19;153633;-58
2022/11/15 00:19:07;;;;;;;;;;;;;;;21.28;56.08;100199.28;7258154;19;153006;-58
2022/11/15 00:21:34;;;;;;;;;;;;;;;21.26;56.47;100195.97;7257562;19;155830;-58
2022/11/15 00:24:01;;;;;;;;;;;;;;;21.26;56.60;100201.59;7266581;19;153013;-58
2022/11/15 00:26:27;;;;;;;;;;;;;;;21.24;56.29;100196.31;7258077;19;154423;-57
2022/11/15 00:28:54;;;;;;;;;;;;;;;21.24;56.19;100187.06;7258115;19;152924;-58
2022/11/15 00:31:21;;;;;;;;;;;;;;;21.24;56.56;100181.44;7257783;19;154452;-58
2022/11/15 00:33:47;;;;;;;;;;;;;;;21.24;56.19;100176.66;7257729;19;155439;-58
2022/11/15 00:36:14;;;;;;;;;;;;;;;21.23;56.75;100174.16;7258385;19;153248;-58
2022/11/15 00:38:41;;;;;;;;;;;;;;;21.21;56.62;100173.69;7257928;19;155054;-58
2022/11/15 00:41:08;;;;;;;;;;;;;;;21.20;56.58;100172.84;7258393;19;153868;-58
2022/11/15 00:43:36;;;;;;;;;;;;;;;21.19;56.59;100162.75;7258848;19;153177;-58
2022/11/15 00:46:02;;;;;;;;;;;;;;;21.19;56.67;100159.97;7264123;19;153844;-58
2022/11/15 00:48:30;;;;;;;;;;;;;;;21.19;56.81;100159.13;7259418;19;153101;-58
2022/11/15 00:50:57;;;;;;;;;;;;;;;21.18;56.99;100147.06;7259949;19;153682;-58
2022/11/15 00:53:23;;;;;;;;;;;;;;;21.17;56.71;100147.38;7257701;19;155372;-58
2022/11/15 00:55:50;;;;;;;;;;;;;;;21.16;56.66;100138.16;7255972;19;153835;-58
2022/11/15 00:58:17;;;;;;;;;;;;;;;21.15;57.17;100130.88;7258156;19;155069;-58
2022/11/15 01:00:43;;;;;;;;;;;;;;;21.15;56.96;100122.44;7254751;19;154109;-58
2022/11/15 01:03:10;;;;;;;;;;;;;;;21.15;57.01;100118.81;7259592;19;153638;-58
2022/11/15 01:05:37;;;;;;;;;;;;;;;21.14;56.86;100115.19;7256751;19;154036;-57
2022/11/15 01:08:04;;;;;;;;;;;;;;;21.11;57.30;100098.13;7263303;19;153557;-57
2022/11/15 01:10:31;;;;;;;;;;;;;;;21.12;57.36;100108.22;7251166;19;154369;-58
2022/11/15 01:12:57;;;;;;;;;;;;;;;21.11;57.48;100104.59;7247381;19;153983;-58
2022/11/15 01:15:24;;;;;;;;;;;;;;;21.09;57.08;100098.47;7250263;19;153161;-58
2022/11/15 01:17:51;;;;;;;;;;;;;;;21.09;57.45;100097.63;7254179;19;154502;-58
2022/11/15 01:20:18;;;;;;;;;;;;;;;21.08;57.43;100091.19;7254050;19;153898;-58
2022/11/15 01:22:45;;;;;;;;;;;;;;;21.06;57.67;100096.31;7253773;19;153925;-57
2022/11/15 01:25:14;;;;;;;;;;;;;;;21.07;57.68;100088.72;7254969;19;153912;-58
2022/11/15 01:27:40;;;;;;;;;;;;;;;21.06;57.75;100089.88;7259589;19;154460;-57
2022/11/15 01:30:08;;;;;;;;;;;;;;;21.05;57.78;100074.19;7252581;19;154350;-58
2022/11/15 01:32:37;;;;;;;;;;;;;;;21.05;57.38;100063.78;7251404;19;152725;-58
2022/11/15 01:35:04;;;;;;;;;;;;;;;21.05;57.77;100072.19;7251803;19;152875;-58
2022/11/15 01:37:31;;;;;;;;;;;;;;;21.05;57.77;100060.13;7251721;19;154368;-58
2022/11/15 01:39:57;;;;;;;;;;;;;;;21.04;57.86;100056.50;7249963;19;154582;-57
2022/11/15 01:42:24;;;;;;;;;;;;;;;21.02;57.89;100052.38;7255031;19;153296;-58
2022/11/15 01:44:51;;;;;;;;;;;;;;;21.00;57.51;100054.69;7250369;19;155245;-58
2022/11/15 01:47:24;;;;;;;;;;;;;;;21.00;57.55;100047.09;7252209;19;158892;-58
2022/11/15 01:50:02;;;;;;;;;;;;;;;20.99;57.58;100039.81;7259193;19;153358;-58
2022/11/15 01:52:31;;;;;;;;;;;;;;;20.98;57.64;100045.78;7249642;19;152739;-58
2022/11/15 01:55:03;;;;;;;;;;;;;;;20.99;57.96;100044.63;7253370;19;153378;-58
2022/11/15 01:57:30;;;;;;;;;;;;;;;20.98;57.59;100031.75;7252845;19;154687;-58
2022/11/15 01:59:58;;;;;;;;;;;;;;;20.96;58.07;100032.06;7249550;19;153744;-59
2022/11/15 02:02:25;;;;;;;;;;;;;;;20.95;57.94;100015.56;7253003;19;153461;-58
2022/11/15 02:04:52;;;;;;;;;;;;;;;20.96;58.07;100014.41;7257081;19;154974;-58
2022/11/15 02:07:19;;;;;;;;;;;;;;;20.94;58.16;100009.09;7251901;19;154036;-58
2022/11/15 02:09:46;;;;;;;;;;;;;;;20.93;57.88;100007.47;7259112;19;152376;-58
2022/11/15 02:12:15;;;;;;;;;;;;;;;20.92;57.94;100007.81;7259755;19;154840;-58
2022/11/15 02:14:45;;;;;;;;;;;;;;;20.91;57.93;100000.53;7247662;19;152533;-58
2022/11/15 02:17:26;;;;;;;;;;;;;;;20.91;58.06;99992.09;7253913;19;154428;-58
2022/11/15 02:19:52;;;;;;;;;;;;;;;20.91;58.20;100000.53;7253044;19;153360;-58
2022/11/15 02:22:34;;;;;;;;;;;;;;;20.90;57.76;99990.44;7254829;19;153402;-58
2022/11/15 02:25:01;;;;;;;;;;;;;;;20.89;58.23;99975.63;7257152;19;153983;-58
2022/11/15 02:27:41;;;;;;;;;;;;;;;20.89;58.08;99964.38;7250852;19;156570;-58
2022/11/15 02:30:14;;;;;;;;;;;;;;;20.88;58.01;99971.16;7252325;19;154834;-58
2022/11/15 02:32:45;;;;;;;;;;;;;;;20.84;58.17;99973.81;7257373;19;153107;-58
2022/11/15 02:35:18;;;;;;;;;;;;;;;20.85;57.89;99964.22;7259952;19;153617;-57
2022/11/15 02:37:49;;;;;;;;;;;;;;;20.85;58.05;99958.59;7252189;19;153797;-57
2022/11/15 02:40:38;;;;;;;;;;;;;;;20.83;58.17;99963.72;7249999;19;153792;-58
2022/11/15 02:46:09;;;;;;;;;;;;;;;20.84;58.12;99939.28;7255594;19;154053;-57
2022/11/15 02:48:36;;;;;;;;;;;;;;;20.83;58.59;99935.66;7254046;19;155677;-57
2022/11/15 02:51:03;;;;;;;;;;;;;;;20.82;58.36;99939.63;7253456;19;152508;-58
2022/11/15 02:53:30;;;;;;;;;;;;;;;20.83;58.09;99938.47;7252522;19;155440;-58
2022/11/15 02:55:58;;;;;;;;;;;;;;;20.82;58.11;99936.81;7252905;19;154446;-58
2022/11/15 02:58:43;;;;;;;;;;;;;;;20.78;58.54;99919.00;7258211;19;155079;-58
2022/11/15 03:01:10;;;;;;;;;;;;;;;20.80;58.17;99916.66;7254665;19;154382;-57
2022/11/15 03:03:43;;;;;;;;;;;;;;;20.77;58.40;99906.09;7257794;19;153988;-58
2022/11/15 03:06:19;;;;;;;;;;;;;;;20.77;58.34;99910.91;7253473;19;152581;-58
2022/11/15 03:08:48;;;;;;;;;;;;;;;20.75;58.17;99900.03;7256341;19;154713;-58
2022/11/15 03:11:16;;;;;;;;;;;;;;;20.75;58.54;99893.56;7258419;19;154549;-58
2022/11/15 03:14:02;;;;;;;;;;;;;;;20.72;58.45;99891.41;7253570;19;154504;-58
2022/11/15 03:16:47;;;;;;;;;;;;;;;20.73;58.22;99876.22;7253336;19;153389;-58
2022/11/15 03:19:22;;;;;;;;;;;;;;;20.73;58.42;99870.63;7257647;19;154565;-58
2022/11/15 03:21:49;;;;;;;;;;;;;;;20.72;58.28;99880.19;7261936;19;154204;-57
2022/11/15 03:24:17;;;;;;;;;;;;;;;20.71;58.67;99875.75;7257417;19;153161;-57
2022/11/15 03:26:52;;;;;;;;;;;;;;;20.70;58.65;99874.94;7255887;19;154007;-58
2022/11/15 03:29:22;;;;;;;;;;;;;;;20.69;58.71;99875.25;7252022;19;154023;-57
2022/11/15 03:31:54;;;;;;;;;;;;;;;20.68;58.66;99868.81;7253923;19;153747;-58
2022/11/15 03:34:24;;;;;;;;;;;;;;;20.67;58.51;99858.75;7255394;19;153966;-58
2022/11/15 03:36:51;;;;;;;;;;;;;;;20.66;58.45;99851.50;7254181;19;154251;-58
2022/11/15 03:39:19;;;;;;;;;;;;;;;20.66;58.62;99854.31;7263518;19;153432;-58
2022/11/15 03:42:04;;;;;;;;;;;;;;;20.68;58.77;99851.16;7267616;19;153724;-58
2022/11/15 03:44:50;;;;;;;;;;;;;;;20.65;58.82;99844.25;7261612;19;153820;-57
2022/11/15 03:47:23;;;;;;;;;;;;;;;20.64;58.54;99844.56;7261718;19;154266;-57
2022/11/15 03:49:52;;;;;;;;;;;;;;;20.63;58.85;99843.75;7261459;19;154363;-58
2022/11/15 03:52:20;;;;;;;;;;;;;;;20.63;59.14;99838.13;7262500;19;153114;-58
2022/11/15 03:54:54;;;;;;;;;;;;;;;20.64;59.23;99839.78;7262790;19;152746;-58
2022/11/15 03:57:21;;;;;;;;;;;;;;;20.63;59.30;99834.50;7260998;19;154286;-58
2022/11/15 03:59:48;;;;;;;;;;;;;;;20.61;59.27;99826.44;7259835;19;153573;-57
2022/11/15 04:02:15;;;;;;;;;;;;;;;20.60;59.42;99821.97;7263681;19;154424;-58
2022/11/15 04:04:41;;;;;;;;;;;;;;;20.59;59.34;99825.94;7269001;19;154323;-57
2022/11/15 04:07:08;;;;;;;;;;;;;;;20.62;59.45;99818.84;7261335;19;154644;-58
2022/11/15 04:10:01;;;;;;;;;;;;;;;20.59;59.10;99811.91;7262526;19;154574;-58
2022/11/15 04:12:30;;;;;;;;;;;;;;;20.62;59.60;99807.63;7262287;19;153296;-58
2022/11/15 04:15:07;;;;;;;;;;;;;;;20.61;59.45;99809.59;7261223;19;153771;-57
2022/11/15 04:17:35;;;;;;;;;;;;;;;20.60;59.46;99799.53;7261997;19;154685;-57
2022/11/15 04:25:33;;;;;;;;;;;;;;;20.58;59.35;99781.38;7264363;19;154361;-57
2022/11/15 04:27:59;;;;;;;;;;;;;;;20.58;59.56;99795.41;7269988;19;154178;-57
2022/11/15 04:30:26;;;;;;;;;;;;;;;20.56;59.47;99778.91;7258128;19;152660;-58
2022/11/15 04:32:53;;;;;;;;;;;;;;;20.57;59.69;99771.31;7265723;19;154750;-57
2022/11/15 04:35:20;;;;;;;;;;;;;;;20.56;59.60;99764.88;7262933;19;153592;-58
2022/11/15 04:37:46;;;;;;;;;;;;;;;20.55;59.59;99759.59;7259840;19;154363;-58
2022/11/15 04:40:15;;;;;;;;;;;;;;;20.55;59.85;99763.22;7261593;19;153848;-57
2022/11/15 04:42:42;;;;;;;;;;;;;;;20.54;59.67;99755.97;7259657;19;153436;-58
2022/11/15 04:45:09;;;;;;;;;;;;;;;20.55;59.93;99752.00;7257945;19;154250;-58
2022/11/15 04:47:36;;;;;;;;;;;;;;;20.54;59.69;99743.91;7258874;19;153477;-57
2022/11/15 04:50:03;;;;;;;;;;;;;;;20.54;59.62;99733.50;7263960;19;153915;-57
2022/11/15 04:52:31;;;;;;;;;;;;;;;20.53;60.08;99722.66;7260316;19;153299;-57
2022/11/15 04:55:01;;;;;;;;;;;;;;;20.52;59.70;99721.00;7257828;19;154106;-58
2022/11/15 04:57:33;;;;;;;;;;;;;;;20.52;60.08;99724.63;7259528;19;154848;-58
2022/11/15 05:00:00;;;;;;;;;;;;;;;20.52;60.10;99721.00;7259202;19;153169;-57
2022/11/15 05:04:18;;;;;;;;;;;;;;;20.51;59.84;99713.72;7261968;19;152715;-58
2022/11/15 05:05:21;;;;;;;;;;;;;;;20.53;59.95;99711.41;7258293;19;153333;-58
2022/11/15 05:07:48;;;;;;;;;;;;;;;20.51;59.92;99702.50;7261047;19;153625;-58
2022/11/15 05:10:15;;;;;;;;;;;;;;;20.51;60.05;99708.94;7262313;19;153622;-58
2022/11/15 05:12:42;;;;;;;;;;;;;;;20.51;60.13;99691.28;7264568;19;154088;-58
2022/11/15 05:15:08;;;;;;;;;;;;;;;20.49;60.21;99691.59;7261373;19;153673;-58
2022/11/15 05:17:35;;;;;;;;;;;;;;;20.50;59.86;99696.06;7259827;19;155450;-58
2022/11/15 05:20:02;;;;;;;;;;;;;;;20.49;60.11;99683.19;7259947;19;151961;-58
2022/11/15 05:22:29;;;;;;;;;;;;;;;20.49;60.47;99674.78;7257509;19;154263;-58
2022/11/15 05:24:55;;;;;;;;;;;;;;;20.48;60.26;99675.97;7260219;19;153869;-57
2022/11/15 05:27:22;;;;;;;;;;;;;;;20.48;60.02;99663.91;7259237;19;152981;-58
2022/11/15 05:29:48;;;;;;;;;;;;;;;20.47;60.14;99654.66;7257528;19;153907;-57
2022/11/15 05:32:16;;;;;;;;;;;;;;;20.46;60.01;99658.63;7257929;19;153469;-57
2022/11/15 05:34:43;;;;;;;;;;;;;;;20.47;60.21;99656.66;7267620;19;154036;-58
2022/11/15 05:37:10;;;;;;;;;;;;;;;20.46;60.30;99658.63;7258602;19;153812;-58
2022/11/15 05:39:36;;;;;;;;;;;;;;;20.44;59.99;99635.72;7256943;19;154163;-58
2022/11/15 05:42:07;;;;;;;;;;;;;;;20.45;60.40;99636.50;7260524;19;154315;-58
2022/11/15 05:44:35;;;;;;;;;;;;;;;20.45;60.26;99636.50;7260028;19;154046;-58
2022/11/15 05:47:03;;;;;;;;;;;;;;;20.45;60.15;99633.72;7259023;19;153965;-58
2022/11/15 05:49:34;;;;;;;;;;;;;;;20.44;60.51;99640.50;7258974;19;153408;-58
2022/11/15 05:52:03;;;;;;;;;;;;;;;20.42;60.36;99630.44;7259347;19;154940;-58
2022/11/15 05:54:30;;;;;;;;;;;;;;;20.40;60.38;99612.28;7266057;19;154246;-58
2022/11/15 05:56:57;;;;;;;;;;;;;;;20.41;60.41;99614.75;7258859;19;155064;-57
2022/11/15 05:59:24;;;;;;;;;;;;;;;20.42;60.43;99612.78;7255443;19;153213;-57
2022/11/15 06:01:51;;;;;;;;;;;;;;;20.41;60.74;99603.53;7255718;19;153548;-58
2022/11/15 06:04:17;;;;;;;;;;;;;;;20.40;60.68;99603.88;7256829;19;153912;-58
2022/11/15 06:06:44;;;;;;;;;;;;;;;20.39;60.66;99607.84;7257648;19;153809;-57
2022/11/15 06:09:11;;;;;;;;;;;;;;;20.38;60.63;99606.22;7260678;19;154731;-58
2022/11/15 06:11:38;;;;;;;;;;;;;;;20.39;60.74;99611.50;7254667;19;154464;-58
2022/11/15 06:14:04;;;;;;;;;;;;;;;20.41;60.67;99594.28;7259005;19;153883;-58
2022/11/15 06:16:31;;;;;;;;;;;;;;;20.45;60.53;99598.06;7265005;19;153319;-58
2022/11/15 06:18:58;;;;;;;;;;;;;;;20.46;60.97;99598.88;7259268;19;154168;-58
2022/11/15 06:21:27;;;;;;;;;;;;;;;20.49;61.20;99590.59;7256764;19;152778;-58
2022/11/15 06:23:54;;;;;;;;;;;;;;;20.52;61.26;99597.53;7257267;19;153205;-57
2022/11/15 06:26:21;;;;;;;;;;;;;;;20.55;61.55;99591.22;7260555;19;154021;-58
2022/11/15 06:28:47;;;;;;;;;;;;;;;20.58;61.47;99585.75;7258238;19;153367;-58
2022/11/15 06:31:14;;;;;;;;;;;;;;;20.63;61.51;99585.53;7256069;19;153974;-58
2022/11/15 06:33:41;;;;;;;;;;;;;;;20.67;61.96;99586.50;7258697;19;152858;-58
2022/11/15 06:36:09;;;;;;;;;;;;;;;20.71;61.95;99579.06;7258920;19;153189;-58
2022/11/15 06:38:43;;;;;;;;;;;;;;;20.76;62.22;99580.81;7264498;19;153532;-58
2022/11/15 06:41:10;;;;;;;;;;;;;;;20.82;62.24;99573.84;7258310;19;154019;-58
2022/11/15 06:43:38;;;;;;;;;;;;;;;20.86;62.02;99574.78;7255099;19;154322;-58
2022/11/15 06:46:05;;;;;;;;;;;;;;;20.91;61.85;99570.94;7259260;19;153310;-57
2022/11/15 06:48:32;;;;;;;;;;;;;;;20.96;61.96;99560.31;7257887;19;153795;-58
2022/11/15 06:51:00;;;;;;;;;;;;;;;21.00;61.89;99557.63;7255644;19;153379;-58
2022/11/15 06:53:27;;;;;;;;;;;;;;;21.05;61.76;99555.44;7256181;19;153225;-58
2022/11/15 06:55:58;;;;;;;;;;;;;;;21.10;61.79;99552.41;7258382;19;154154;-59
2022/11/15 06:58:24;;;;;;;;;;;;;;;21.16;61.64;99547.44;7254447;19;156575;-58
2022/11/15 07:00:51;;;;;;;;;;;;;;;21.19;61.89;99544.75;7263502;19;153346;-58
2022/11/15 07:03:18;;;;;;;;;;;;;;;21.26;61.67;99545.00;7254556;19;153726;-58
2022/11/15 07:05:54;;;;;;;;;;;;;;;21.32;62.07;99539.16;7254817;19;155888;-58
2022/11/15 07:08:22;;;;;;;;;;;;;;;21.36;61.78;99526.06;7256222;19;153780;-57
2022/11/15 07:10:48;;;;;;;;;;;;;;;21.40;61.70;99527.81;7257279;19;154666;-57
2022/11/15 07:13:15;;;;;;;;;;;;;;;21.45;61.74;99521.16;7251167;19;153708;-57
2022/11/15 07:15:42;;;;;;;;;;;;;;;21.49;61.37;99524.91;7257417;19;153642;-57
2022/11/15 07:18:08;;;;;;;;;;;;;;;21.54;61.69;99516.25;7252427;19;154569;-57
2022/11/15 07:20:35;;;;;;;;;;;;;;;21.58;61.25;99514.38;7256435;19;152211;-57
2022/11/15 07:23:02;;;;;;;;;;;;;;;21.60;60.80;99515.66;7260423;19;152922;-57
2022/11/15 07:25:29;;;;;;;;;;;;;;;21.64;60.54;99518.59;7256098;19;152724;-58
2022/11/15 07:27:56;;;;;;;;;;;;;;;21.66;60.09;99507.84;7256452;19;153914;-57
2022/11/15 07:30:24;;;;;;;;;;;;;;;21.69;59.98;99507.13;7253842;19;156184;-57
2022/11/15 07:32:59;;;;;;;;;;;;;;;21.71;59.90;99501.97;7255557;19;153966;-57
2022/11/15 07:35:27;;;;;;;;;;;;;;;21.72;60.07;99507.22;7257297;19;154728;-57
2022/11/15 07:37:57;;;;;;;;;;;;;;;21.74;59.73;99513.34;7253400;19;155650;-57
2022/11/15 07:40:25;;;;;;;;;;;;;;;21.77;59.62;99502.53;7256796;19;154262;-57
2022/11/15 07:42:59;;;;;;;;;;;;;;;21.79;59.61;99503.03;7254768;19;153387;-57
2022/11/15 07:45:29;;;;;;;;;;;;;;;21.79;59.60;99486.97;7261512;19;153171;-57
2022/11/15 07:47:56;;;;;;;;;;;;;;;21.81;59.63;99492.22;7256027;19;153542;-58
2022/11/15 07:50:23;;;;;;;;;;;;;;;21.82;59.08;99493.88;7255385;19;154429;-57
2022/11/15 07:52:57;;;;;;;;;;;;;;;21.66;56.03;99494.59;7257432;19;153364;-57
2022/11/15 07:55:24;;;;;;;;;;;;;;;21.66;56.59;99493.78;7255655;19;154523;-57
2022/11/15 07:57:51;;;;;;;;;;;;;;;21.66;57.00;99488.16;7251839;19;154224;-57
2022/11/15 08:00:18;;;;;;;;;;;;;;;21.64;56.53;99480.06;7254281;19;154081;-57
2022/11/15 08:02:45;;;;;;;;;;;;;;;21.64;56.44;99474.44;7254542;19;153263;-57
2022/11/15 08:05:12;;;;;;;;;;;;;;;21.64;56.79;99465.19;7262728;19;153072;-58
2022/11/15 08:07:44;;;;;;;;;;;;;;;21.64;56.75;99470.81;7254124;19;154841;-57
2022/11/15 08:10:11;;;;;;;;;;;;;;;21.63;56.38;99463.53;7254382;19;154068;-57
2022/11/15 08:12:38;;;;;;;;;;;;;;;21.63;56.40;99463.53;7254460;19;153200;-57
2022/11/15 08:15:05;;;;;;;;;;;;;;;21.63;56.54;99457.91;7254030;19;154427;-57
2022/11/15 08:17:33;;;;;;;;;;;;;;;21.60;56.62;99456.66;7253515;19;153902;-57
2022/11/15 08:20:00;;;;;;;;;;;;;;;21.61;56.76;99451.84;7251377;19;152613;-57
2022/11/15 08:22:27;;;;;;;;;;;;;;;21.60;57.00;99441.78;7253373;19;153435;-57
2022/11/15 08:24:53;;;;;;;;;;;;;;;21.64;57.19;99446.34;7258302;19;155759;-59
2022/11/15 08:27:20;;;;;;;;;;;;;;;21.67;57.02;99436.38;7265702;19;155116;-57
2022/11/15 08:29:49;;;;;;;;;;;;;;;21.70;57.50;99441.28;7253214;19;154081;-57
2022/11/15 08:32:17;;;;;;;;;;;;;;;21.68;56.63;99440.81;7261962;19;154472;-57
2022/11/15 08:34:44;;;;;;;;;;;;;;;21.68;57.02;99435.19;7262689;19;153469;-57
2022/11/15 08:37:11;;;;;;;;;;;;;;;21.69;56.90;99432.03;7251604;19;153917;-57
2022/11/15 08:39:37;;;;;;;;;;;;;;;21.70;57.04;99439.31;7256424;19;154395;-57
2022/11/15 08:42:04;;;;;;;;;;;;;;;21.72;56.83;99439.75;7251755;19;153031;-57
2022/11/15 08:44:31;;;;;;;;;;;;;;;21.73;56.82;99430.16;7255963;19;158924;-57
2022/11/15 08:46:57;;;;;;;;;;;;;;;21.75;57.01;99418.56;7261506;19;153528;-57
2022/11/15 08:49:24;;;;;;;;;;;;;;;21.76;56.82;99414.56;7269594;19;153880;-57
2022/11/15 08:51:51;;;;;;;;;;;;;;;21.77;56.79;99407.78;7256873;19;153224;-57
2022/11/15 08:54:17;;;;;;;;;;;;;;;21.78;56.83;99409.41;7252130;19;154461;-57
2022/11/15 08:56:44;;;;;;;;;;;;;;;21.79;56.66;99408.25;7258419;19;154063;-57
2022/11/15 08:59:11;;;;;;;;;;;;;;;21.80;56.29;99407.09;7259308;19;154178;-57
2022/11/15 09:01:37;;;;;;;;;;;;;;;21.81;56.54;99407.88;7241135;19;153897;-57
2022/11/15 09:04:04;;;;;;;;;;;;;;;21.82;56.83;99401.09;7252012;19;154420;-57
2022/11/15 09:06:31;;;;;;;;;;;;;;;21.82;56.46;99401.91;7258048;19;153228;-57
2022/11/15 09:08:58;;;;;;;;;;;;;;;21.81;56.51;99394.63;7257491;19;153561;-57
2022/11/15 09:11:26;;;;;;;;;;;;;;;21.82;56.54;99385.03;7261597;19;154090;-58
2022/11/15 09:13:52;;;;;;;;;;;;;;;21.82;56.35;99376.59;7253509;19;155387;-57
2022/11/15 09:16:19;;;;;;;;;;;;;;;21.82;56.24;99379.41;7253859;19;156501;-57
2022/11/15 09:18:47;;;;;;;;;;;;;;;21.82;56.22;99365.34;7252399;19;154612;-57
2022/11/15 09:21:14;;;;;;;;;;;;;;;21.83;56.38;99371.81;7253547;19;154119;-57
2022/11/15 09:23:41;;;;;;;;;;;;;;;21.82;56.19;99362.53;7253536;19;153839;-57
2022/11/15 09:26:07;;;;;;;;;;;;;;;21.83;56.34;99366.19;7256818;19;154120;-57
2022/11/15 09:28:36;;;;;;;;;;;;;;;21.84;56.20;99360.22;7255343;19;154433;-57
2022/11/15 09:31:04;;;;;;;;;;;;;;;21.82;56.25;99347.66;7253127;19;154229;-57
2022/11/15 09:33:31;;;;;;;;;;;;;;;21.81;56.13;99357.25;7262204;19;152496;-57
2022/11/15 09:36:02;;;;;;;;;;;;;;;21.80;56.10;99344.41;7252225;19;154502;-57
2022/11/15 09:38:28;;;;;;;;;;;;;;;21.79;56.26;99346.41;7254279;19;155351;-57
2022/11/15 09:41:11;;;;;;;;;;;;;;;21.80;56.11;99344.41;7253452;19;153388;-57
2022/11/15 09:43:50;;;;;;;;;;;;;;;21.78;56.39;99339.13;7250372;19;156958;-57
2022/11/15 09:46:17;;;;;;;;;;;;;;;21.78;56.33;99325.06;7251238;19;153222;-57
2022/11/15 09:48:55;;;;;;;;;;;;;;;21.76;56.29;99327.41;7254703;19;154382;-57
2022/11/15 09:51:46;;;;;;;;;;;;;;;21.76;56.25;99309.75;7251703;19;155398;-57
2022/11/15 09:54:28;;;;;;;;;;;;;;;21.76;56.43;99313.34;7262187;19;153810;-57
2022/11/15 09:57:18;;;;;;;;;;;;;;;21.75;56.42;99308.94;7254153;19;156079;-57
2022/11/15 09:59:45;;;;;;;;;;;;;;;21.76;56.27;99298.50;7252694;19;152993;-57
2022/11/15 10:02:23;;;;;;;;;;;;;;;21.74;56.22;99299.69;7252502;19;154409;-57
2022/11/15 10:04:51;;;;;;;;;;;;;;;21.74;56.08;99296.03;7248952;19;154361;-57
2022/11/15 10:07:25;;;;;;;;;;;;;;;21.73;56.02;99294.41;7254956;19;153826;-58
2022/11/15 10:09:56;;;;;;;;;;;;;;;21.73;56.39;99288.78;7256428;19;154487;-57
2022/11/15 10:12:25;;;;;;;;;;;;;;;21.72;56.02;99285.16;7255190;19;154163;-57
2022/11/15 10:14:58;;;;;;;;;;;;;;;21.72;56.22;99282.34;7259449;19;153308;-58
2022/11/15 10:17:32;;;;;;;;;;;;;;;21.71;56.41;99277.88;7266365;19;154638;-57
2022/11/15 10:20:07;;;;;;;;;;;;;;;21.71;56.40;99283.50;7260016;19;152840;-57
2022/11/15 10:22:59;;;;;;;;;;;;;;;21.70;56.00;99269.81;7257562;19;155267;-57
2022/11/15 10:25:27;;;;;;;;;;;;;;;21.69;56.16;99268.19;7258096;19;153434;-57
2022/11/15 10:28:03;;;;;;;;;;;;;;;21.68;56.20;99269.34;7257057;19;154386;-57
2022/11/15 10:30:37;;;;;;;;;;;;;;;21.67;56.19;99248.03;7257039;19;153499;-57
2022/11/15 10:33:11;;;;;;;;;;;;;;;21.65;56.01;99241.97;7259211;19;156150;-57
2022/11/15 10:35:38;;;;;;;;;;;;;;;21.64;56.34;99241.16;7259557;19;153182;-57
2022/11/15 10:38:07;;;;;;;;;;;;;;;21.63;56.30;99228.25;7259153;19;154402;-57
2022/11/15 10:40:34;;;;;;;;;;;;;;;21.63;56.12;99221.81;7265033;19;154124;-57
2022/11/15 10:43:10;;;;;;;;;;;;;;;21.62;56.03;99215.38;7255312;19;154471;-57
2022/11/15 10:45:37;;;;;;;;;;;;;;;21.61;56.21;99218.56;7256183;19;154078;-57
2022/11/15 10:48:23;;;;;;;;;;;;;;;21.61;55.88;99207.31;7254425;19;152170;-57
2022/11/15 10:50:51;;;;;;;;;;;;;;;21.58;55.97;99203.22;7257267;19;151865;-57
2022/11/15 10:53:30;;;;;;;;;;;;;;;21.58;55.95;99194.78;7257657;19;154065;-57
2022/11/15 10:56:00;;;;;;;;;;;;;;;21.56;56.33;99194.34;7258104;19;153263;-57
2022/11/15 10:58:41;;;;;;;;;;;;;;;21.55;55.98;99192.69;7256748;19;153056;-57
2022/11/15 11:01:12;;;;;;;;;;;;;;;21.53;56.22;99192.22;7256469;19;153866;-58
2022/11/15 11:03:40;;;;;;;;;;;;;;;21.53;56.09;99183.00;7265856;19;153874;-57
2022/11/15 11:06:13;;;;;;;;;;;;;;;21.52;56.21;99179.38;7251240;19;155136;-57
2022/11/15 11:09:00;;;;;;;;;;;;;;;21.50;56.23;99172.47;7257173;19;154041;-57
2022/11/15 11:11:46;;;;;;;;;;;;;;;21.49;56.07;99166.03;7257260;19;154061;-57
2022/11/15 11:14:17;;;;;;;;;;;;;;;21.47;56.50;99162.78;7255931;19;153828;-58
2022/11/15 11:17:04;;;;;;;;;;;;;;;21.47;56.54;99161.94;7254943;19;153125;-59
2022/11/15 11:19:34;;;;;;;;;;;;;;;21.46;56.09;99158.31;7258431;19;153532;-57
2022/11/15 11:22:05;;;;;;;;;;;;;;;21.46;56.45;99149.06;7254568;19;154239;-58
2022/11/15 11:24:46;;;;;;;;;;;;;;;21.44;56.55;99135.38;7256649;19;153128;-57
2022/11/15 11:27:27;;;;;;;;;;;;;;;21.43;56.25;99145.00;7266792;19;154746;-59
2022/11/15 11:30:03;;;;;;;;;;;;;;;21.42;56.13;99136.91;7256387;19;153874;-57
2022/11/15 11:32:49;;;;;;;;;;;;;;;21.41;56.16;99129.66;7257969;19;154433;-57
2022/11/15 11:35:34;;;;;;;;;;;;;;;21.40;56.41;99128.84;7254730;19;154238;-57
2022/11/15 11:38:36;;;;;;;;;;;;;;;21.39;56.30;99127.22;7255755;19;153724;-57
2022/11/15 11:41:07;;;;;;;;;;;;;;;21.38;56.60;99108.72;7253121;19;153500;-58
2022/11/15 11:43:46;;;;;;;;;;;;;;;21.36;56.62;99108.25;7251994;19;153839;-58
2022/11/15 11:46:19;;;;;;;;;;;;;;;21.33;56.64;99108.16;7253373;19;153248;-57
2022/11/15 11:48:51;;;;;;;;;;;;;;;21.32;56.45;99098.91;7257945;19;153802;-58
2022/11/15 11:51:21;;;;;;;;;;;;;;;21.30;56.52;99082.41;7261658;19;154322;-58
2022/11/15 11:53:51;;;;;;;;;;;;;;;21.31;56.71;99086.03;7255712;19;154174;-58
2022/11/15 11:56:25;;;;;;;;;;;;;;;21.29;56.53;99082.78;7257350;19;153837;-58
2022/11/15 11:58:53;;;;;;;;;;;;;;;21.27;56.35;99074.72;7262741;19;152755;-57
2022/11/15 12:01:24;;;;;;;;;;;;;;;21.24;56.57;99063.38;7260536;19;154163;-58
2022/11/15 12:04:01;;;;;;;;;;;;;;;21.23;56.63;99058.94;7260977;19;153774;-58
2022/11/15 12:06:42;;;;;;;;;;;;;;;21.21;56.78;99047.25;7258500;19;152830;-57
2022/11/15 12:09:15;;;;;;;;;;;;;;;21.19;56.74;99043.97;7260721;19;153608;-57
2022/11/15 12:11:56;;;;;;;;;;;;;;;21.17;56.64;99035.09;7266907;19;154273;-57
2022/11/15 12:14:25;;;;;;;;;;;;;;;21.16;56.83;99025.06;7261077;19;153597;-57
2022/11/15 12:16:52;;;;;;;;;;;;;;;21.14;56.62;99028.22;7261148;19;154170;-57
2022/11/15 12:19:18;;;;;;;;;;;;;;;21.13;56.92;99022.94;7263430;19;154814;-59
2022/11/15 12:21:59;;;;;;;;;;;;;;;21.11;56.66;99017.66;7261983;19;153697;-59
2022/11/15 12:24:40;;;;;;;;;;;;;;;21.10;56.84;99018.03;7260822;19;154517;-59
2022/11/15 12:27:14;;;;;;;;;;;;;;;21.07;57.24;99002.72;7262462;19;154019;-58
2022/11/15 12:29:49;;;;;;;;;;;;;;;21.06;56.78;99008.69;7261990;19;153043;-58
2022/11/15 12:32:35;;;;;;;;;;;;;;;21.04;56.79;99003.41;7261883;19;155865;-59
2022/11/15 12:35:03;;;;;;;;;;;;;;;21.02;57.02;99002.16;7267934;19;152409;-59
2022/11/15 12:37:33;;;;;;;;;;;;;;;21.01;56.82;98998.53;7260464;19;154457;-59
2022/11/15 12:40:05;;;;;;;;;;;;;;;21.00;56.97;98990.47;7261620;19;153070;-58
2022/11/15 12:42:41;;;;;;;;;;;;;;;20.98;57.23;98987.22;7259512;19;153462;-59
2022/11/15 12:45:43;;;;;;;;;;;;;;;20.97;56.95;98979.97;7263450;19;153723;-59
2022/11/15 12:48:16;;;;;;;;;;;;;;;20.96;57.41;98972.69;7256941;19;154064;-58
2022/11/15 12:50:53;;;;;;;;;;;;;;;20.93;57.20;98977.06;7262626;19;153657;-59
2022/11/15 12:53:22;;;;;;;;;;;;;;;20.91;57.17;98964.53;7260681;19;154307;-58
2022/11/15 12:56:04;;;;;;;;;;;;;;;20.89;57.16;98962.09;7260779;19;153229;-59
2022/11/15 12:58:49;;;;;;;;;;;;;;;20.88;57.50;98954.03;7270372;19;153408;-59
2022/11/15 13:01:34;;;;;;;;;;;;;;;20.88;57.15;98951.22;7260605;19;153416;-58